Time;durP1;ratioP1;P1;durP2;ratioP2;P2;SDS_P1;SDS_P2;PMS_P1;PMS_P2;Temp;Humidity;BMP_temperature;BMP_pressure;BME280_temperature;BME280_humidity;BME280_pressure;Samples;Min_cycle;Max_cycle;Signal;HPM_P1;HPM_P2
2023/05/26 00:01:22;;;;;;;36.05;9.57;;;;;;;8.06;100.00;162671.75;5070615;28;20048;-72
2023/05/26 00:03:48;;;;;;;26.13;12.23;;;;;;;8.03;100.00;162663.63;5069165;28;20070;-70
2023/05/26 00:06:15;;;;;;;30.10;9.50;;;;;;;8.01;100.00;162658.22;5071037;28;20420;-70
2023/05/26 00:08:40;;;;;;;41.45;13.73;;;;;;;7.98;100.00;162650.19;5069356;28;20127;-69
2023/05/26 00:11:06;;;;;;;33.15;12.35;;;;;;;7.94;100.00;162642.06;5070549;28;20099;-69
2023/05/26 00:13:32;;;;;;;36.17;10.70;;;;;;;7.92;100.00;162636.72;5069228;28;20066;-69
2023/05/26 00:15:58;;;;;;;38.67;11.63;;;;;;;7.89;100.00;162628.63;5070913;28;20024;-69
2023/05/26 00:18:26;;;;;;;47.75;10.68;;;;;;;7.87;100.00;162623.22;5069252;28;20040;-68
2023/05/26 00:20:55;;;;;;;29.95;8.55;;;;;;;7.86;100.00;162620.50;5070575;28;20021;-69
2023/05/26 00:23:20;;;;;;;;;;;;;;;7.83;100.00;162612.44;5070991;28;20028;-70
2023/05/26 00:25:45;;;;;;;37.10;16.27;;;;;;;7.83;100.00;162611.06;5068723;28;19923;-69
2023/05/26 00:28:11;;;;;;;36.97;14.57;;;;;;;7.79;100.00;162601.66;5070776;28;20196;-71
2023/05/26 00:30:36;;;;;;;33.88;11.18;;;;;;;7.77;100.00;162597.63;5069025;28;20117;-68
2023/05/26 00:33:01;;;;;;;36.15;10.50;;;;;;;7.69;100.00;162574.72;5070540;28;20032;-71
2023/05/26 00:35:27;;;;;;;28.75;7.75;;;;;;;7.71;100.00;162580.09;5069309;28;20514;-70
2023/05/26 00:37:52;;;;;;;28.15;10.02;;;;;;;7.69;100.00;162574.72;5070207;28;20033;-70
2023/05/26 00:40:18;;;;;;;30.25;11.30;;;;;;;7.67;100.00;162569.31;5069085;28;20407;-70
2023/05/26 00:42:43;;;;;;;41.45;10.75;;;;;;;7.62;100.00;162558.56;5074438;28;20108;-70
2023/05/26 00:45:09;;;;;;;53.25;11.38;;;;;;;7.54;100.00;162537.00;5073069;28;20044;-70
2023/05/26 00:47:35;;;;;;;23.80;10.05;;;;;;;7.54;100.00;162537.00;5074068;28;20032;-70
2023/05/26 00:50:00;;;;;;;31.55;8.88;;;;;;;7.51;100.00;162528.91;5073269;28;20063;-70
2023/05/26 00:52:29;;;;;;;28.33;8.32;;;;;;;7.46;100.00;162516.78;5074484;28;20448;-70
2023/05/26 00:54:54;;;;;;;;;;;;;;;7.42;100.00;162506.03;5073389;28;20041;-70
2023/05/26 00:57:20;;;;;;;37.05;10.25;;;;;;;7.37;100.00;162491.19;5074353;28;19914;-70
2023/05/26 00:59:46;;;;;;;28.67;11.23;;;;;;;7.33;100.00;162480.44;5073043;28;20045;-70
2023/05/26 01:02:12;;;;;;;24.90;11.23;;;;;;;7.26;100.00;162464.22;5073571;28;20552;-70
2023/05/26 01:04:40;;;;;;;37.22;9.07;;;;;;;7.27;100.00;162466.94;5072435;28;20503;-70
2023/05/26 01:07:05;;;;;;;43.83;11.27;;;;;;;7.25;100.00;162461.59;5074077;28;20059;-70
2023/05/26 01:09:31;;;;;;;32.70;10.38;;;;;;;7.21;100.00;162450.78;5072063;28;20060;-70
2023/05/26 01:12:07;;;;;;;33.70;9.38;;;;;;;7.12;100.00;162426.53;5074167;28;20024;-70
2023/05/26 01:14:54;;;;;;;30.80;9.52;;;;;;;7.13;100.00;162429.22;5072481;28;20043;-69
2023/05/26 01:17:34;;;;;;;42.55;11.68;;;;;;;7.06;100.00;162410.38;5073781;28;20024;-70
2023/05/26 01:20:20;;;;;;;37.85;10.15;;;;;;;7.03;100.00;162402.31;5072616;28;20033;-70
2023/05/26 01:22:48;;;;;;;38.67;10.23;;;;;;;7.02;100.00;162399.63;5073692;28;20085;-70
2023/05/26 01:25:28;;;;;;;34.15;9.20;;;;;;;6.96;100.00;162386.13;5072075;28;20037;-71
2023/05/26 01:28:02;;;;;;;34.17;12.05;;;;;;;6.94;100.00;162379.41;5073941;28;20394;-71
2023/05/26 01:30:29;;;;;;;31.58;11.82;;;;;;;6.92;100.00;162375.38;5072355;28;20052;-71
2023/05/26 01:32:54;;;;;;;49.00;13.18;;;;;;;6.91;100.00;162372.66;5073462;28;20074;-71
2023/05/26 01:35:20;;;;;;;45.80;13.00;;;;;;;6.89;100.00;162367.28;5072236;28;20044;-71
2023/05/26 01:37:46;;;;;;;42.35;8.57;;;;;;;6.86;100.00;162357.84;5073446;28;20021;-71
2023/05/26 01:40:12;;;;;;;27.70;8.10;;;;;;;6.78;100.00;162337.66;5071770;28;20051;-71
2023/05/26 01:42:41;;;;;;;27.98;9.18;;;;;;;6.80;100.00;162344.41;5072921;28;20032;-71
2023/05/26 01:45:15;;;;;;;42.30;9.95;;;;;;;6.77;100.00;162334.97;5072020;28;20045;-71
2023/05/26 01:47:42;;;;;;;30.67;9.85;;;;;;;6.66;100.00;162308.03;5072779;28;20486;-71
2023/05/26 01:50:08;;;;;;;51.10;12.43;;;;;;;6.72;100.00;162321.53;5072120;28;20043;-71
2023/05/26 01:52:37;;;;;;;38.95;9.38;;;;;;;6.67;100.00;162310.72;5071983;28;20021;-70
2023/05/26 01:55:07;;;;;;;;;;;;;;;6.64;100.00;162302.69;5072056;28;20106;-70
2023/05/26 01:57:34;;;;;;;62.00;12.10;;;;;;;6.60;100.00;162291.88;5073273;28;19920;-70
2023/05/26 02:00:00;;;;;;;42.67;11.52;;;;;;;6.55;100.00;162278.44;5071710;28;20045;-69
2023/05/26 02:02:25;;;;;;;35.55;9.05;;;;;;;6.54;100.00;162275.72;5072732;28;20025;-70
2023/05/26 02:04:50;;;;;;;41.10;11.20;;;;;;;6.50;100.00;162266.31;5071454;28;20047;-70
2023/05/26 02:07:16;;;;;;;39.45;12.13;;;;;;;6.49;100.00;162263.59;5073082;28;20035;-70
2023/05/26 02:09:41;;;;;;;39.45;10.75;;;;;;;6.48;100.00;162259.59;5071094;28;20410;-70
2023/05/26 02:12:07;;;;;;;41.65;11.85;;;;;;;6.44;100.00;162248.84;5073276;28;20089;-70
2023/05/26 02:14:32;;;;;;;43.67;10.73;;;;;;;6.42;100.00;162243.44;5071347;28;20043;-70
2023/05/26 02:16:57;;;;;;;43.30;10.50;;;;;;;6.38;100.00;162232.63;5072570;28;20029;-70
2023/05/26 02:19:23;;;;;;;35.10;8.93;;;;;;;6.34;100.00;162224.59;5071844;28;20037;-70
2023/05/26 02:21:48;;;;;;;35.55;9.70;;;;;;;6.31;100.00;162216.50;5072661;28;20032;-69
2023/05/26 02:24:14;;;;;;;35.85;9.73;;;;;;;6.25;100.00;162200.34;5070820;28;20036;-69
2023/05/26 02:26:39;;;;;;;28.48;7.10;;;;;;;6.27;100.00;162205.75;5072703;28;20066;-69
2023/05/26 02:29:05;;;;;;;42.30;13.00;;;;;;;6.30;100.00;162212.47;5071463;28;20395;-69
2023/05/26 02:31:31;;;;;;;34.95;9.65;;;;;;;6.35;100.00;162225.91;5071933;28;20055;-69
2023/05/26 02:33:56;;;;;;;41.72;13.15;;;;;;;6.39;100.00;162235.34;5071366;28;20039;-69
2023/05/26 02:36:22;;;;;;;55.92;14.32;;;;;;;6.38;100.00;162232.63;5072609;28;20016;-69
2023/05/26 02:38:47;;;;;;;31.98;12.10;;;;;;;6.45;100.00;162251.47;5070831;28;20032;-69
2023/05/26 02:41:13;;;;;;;38.05;12.45;;;;;;;6.46;100.00;162254.19;5072297;28;20054;-69
2023/05/26 02:43:39;;;;;;;38.55;9.65;;;;;;;6.53;100.00;162273.03;5070887;28;20028;-69
2023/05/26 02:46:04;;;;;;;39.25;12.63;;;;;;;6.53;100.00;162273.03;5072121;28;20031;-71
2023/05/26 02:48:29;;;;;;;28.50;9.07;;;;;;;6.54;100.00;162275.72;5070918;28;20036;-71
2023/05/26 02:50:55;;;;;;;31.35;11.85;;;;;;;6.53;100.00;162273.03;5072497;28;20082;-71
2023/05/26 02:53:21;;;;;;;37.78;9.80;;;;;;;6.52;100.00;162270.31;5071790;28;20025;-70
2023/05/26 02:55:46;;;;;;;36.75;13.60;;;;;;;6.52;100.00;162270.31;5070546;28;20384;-70
2023/05/26 02:58:12;;;;;;;39.00;10.40;;;;;;;6.51;100.00;162267.69;5072364;28;20023;-69
2023/05/26 03:00:38;;;;;;;43.58;10.93;;;;;;;6.51;100.00;162267.69;5069879;28;20423;-69
2023/05/26 03:03:03;;;;;;;25.80;9.80;;;;;;;6.47;100.00;162258.25;5071742;28;20418;-70
2023/05/26 03:05:28;;;;;;;47.30;11.02;;;;;;;6.52;100.00;162270.31;5070300;28;20091;-69
2023/05/26 03:07:54;;;;;;;46.97;10.20;;;;;;;6.50;100.00;162266.31;5071179;28;20028;-68
2023/05/26 03:10:19;;;;;;;37.72;10.13;;;;;;;6.50;100.00;162266.31;5070017;28;20040;-69
2023/05/26 03:12:45;;;;;;;30.33;9.18;;;;;;;6.51;100.00;162269.00;5071832;28;20498;-67
2023/05/26 03:15:11;;;;;;;28.95;9.35;;;;;;;6.52;100.00;162270.31;5070034;28;20556;-67
2023/05/26 03:17:37;;;;;;;48.05;13.27;;;;;;;6.55;100.00;162277.09;5071649;28;20028;-67
2023/05/26 03:20:03;;;;;;;34.75;10.70;;;;;;;6.55;100.00;162278.44;5070387;28;20036;-69
2023/05/26 03:22:29;;;;;;;37.13;11.18;;;;;;;6.52;100.00;162270.31;5071816;28;20123;-69
2023/05/26 03:24:54;;;;;;;42.15;11.63;;;;;;;6.56;100.00;162281.13;5069873;28;20048;-69
2023/05/26 03:27:22;;;;;;;41.78;12.25;;;;;;;6.56;100.00;162281.13;5070199;28;20020;-68
2023/05/26 03:29:47;;;;;;;61.80;12.40;;;;;;;6.54;100.00;162274.41;5069652;28;20526;-69
2023/05/26 03:32:13;;;;;;;21.83;8.50;;;;;;;6.55;100.00;162278.44;5071161;28;20031;-69
2023/05/26 03:34:39;;;;;;;37.25;11.57;;;;;;;6.54;100.00;162275.72;5069860;28;20040;-69
2023/05/26 03:37:05;;;;;;;49.97;9.77;;;;;;;6.55;100.00;162278.44;5071644;28;20020;-69
2023/05/26 03:39:31;;;;;;;36.47;9.90;;;;;;;6.55;100.00;162278.44;5069206;28;20174;-63
2023/05/26 03:41:56;;;;;;;36.70;9.65;;;;;;;6.57;100.00;162282.44;5071279;28;20021;-66
2023/05/26 03:44:21;;;;;;;42.60;10.23;;;;;;;6.59;100.00;162289.19;5069768;28;20044;-68
2023/05/26 03:46:47;;;;;;;32.78;10.95;;;;;;;6.61;100.00;162293.25;5070946;28;20510;-68
2023/05/26 03:49:12;;;;;;;38.03;9.75;;;;;;;6.60;100.00;162291.88;5069632;28;20499;-69
2023/05/26 03:51:37;;;;;;;31.17;11.18;;;;;;;6.59;100.00;162289.19;5070929;28;20047;-69
2023/05/26 03:54:03;;;;;;;29.65;9.43;;;;;;;6.60;100.00;162291.88;5069372;28;20040;-69
2023/05/26 03:56:28;;;;;;;38.22;13.27;;;;;;;6.60;100.00;162291.88;5071019;28;20035;-69
2023/05/26 03:58:54;;;;;;;34.10;9.15;;;;;;;6.53;100.00;162273.03;5069630;28;20400;-69
2023/05/26 04:01:20;;;;;;;38.00;13.85;;;;;;;6.57;100.00;162283.81;5070503;28;20071;-69
2023/05/26 04:03:45;;;;;;;33.33;12.02;;;;;;;6.60;100.00;162290.56;5069018;28;20083;-70
2023/05/26 04:06:11;;;;;;;26.00;8.10;;;;;;;6.57;100.00;162282.44;5070681;28;20482;-70
2023/05/26 04:08:36;;;;;;;30.67;8.60;;;;;;;6.53;100.00;162273.03;5069145;28;20415;-70
2023/05/26 04:11:02;;;;;;;30.52;9.98;;;;;;;6.55;100.00;162278.44;5070699;28;20020;-70
2023/05/26 04:13:27;;;;;;;33.55;11.98;;;;;;;6.58;100.00;162286.53;5063559;28;20040;-67
2023/05/26 04:15:53;;;;;;;35.03;10.13;;;;;;;6.60;100.00;162291.88;5069647;28;20769;-68
2023/05/26 04:18:18;;;;;;;33.90;9.15;;;;;;;6.63;100.00;162299.97;5070316;28;20025;-67
2023/05/26 04:20:43;;;;;;;40.22;10.65;;;;;;;6.66;100.00;162308.03;5068665;28;20041;-68
2023/05/26 04:23:09;;;;;;;40.92;14.73;;;;;;;6.69;100.00;162313.44;5070427;28;20498;-68
2023/05/26 04:25:34;;;;;;;33.45;7.95;;;;;;;6.71;100.00;162320.16;5068714;28;20075;-68
2023/05/26 04:28:02;;;;;;;33.65;11.30;;;;;;;6.64;100.00;162302.69;5070639;28;20031;-69
2023/05/26 04:30:27;;;;;;;25.53;6.43;;;;;;;6.74;100.00;162326.94;5069039;28;20044;-69
2023/05/26 04:32:53;;;;;;;34.35;11.80;;;;;;;6.76;100.00;162332.28;5069890;28;20466;-69
2023/05/26 04:35:19;;;;;;;27.98;8.63;;;;;;;6.81;100.00;162345.78;5068597;28;20055;-69
2023/05/26 04:37:45;;;;;;;37.40;12.32;;;;;;;6.85;100.00;162355.19;5070075;28;20095;-69
2023/05/26 04:40:10;;;;;;;30.13;10.90;;;;;;;6.88;100.00;162363.25;5069179;28;20068;-69
2023/05/26 04:42:36;;;;;;;32.90;10.57;;;;;;;6.92;100.00;162374.03;5069707;28;20116;-69
2023/05/26 04:45:05;;;;;;;32.70;10.90;;;;;;;6.98;100.00;162391.53;5068437;28;20041;-69
2023/05/26 04:47:32;;;;;;;34.47;7.68;;;;;;;7.01;100.00;162396.91;5070193;28;20033;-69
2023/05/26 04:49:59;;;;;;;41.30;12.07;;;;;;;7.05;100.00;162407.66;5069347;28;20059;-69
2023/05/26 04:52:25;;;;;;;48.08;10.25;;;;;;;7.11;100.00;162423.88;5070011;28;20032;-69
2023/05/26 04:54:50;;;;;;;49.70;14.38;;;;;;;7.18;100.00;162442.72;5069024;28;20059;-70
2023/05/26 04:57:16;;;;;;;49.97;12.18;;;;;;;7.22;100.00;162452.16;5070498;28;20375;-70
2023/05/26 04:59:43;;;;;;;34.03;10.95;;;;;;;7.28;100.00;162469.63;5068293;28;20041;-70
2023/05/26 05:02:08;;;;;;;24.98;10.98;;;;;;;7.32;100.00;162479.06;5070386;28;20147;-70
2023/05/26 05:04:34;;;;;;;27.40;8.70;;;;;;;7.41;100.00;162502.00;5068849;28;20494;-70
2023/05/26 05:06:59;;;;;;;40.35;10.55;;;;;;;7.51;100.00;162528.91;5069955;28;20312;-69
2023/05/26 05:09:24;;;;;;;50.40;13.20;;;;;;;7.62;100.00;162557.19;5069119;28;20043;-69
2023/05/26 05:11:50;;;;;;;47.08;10.60;;;;;;;7.70;100.00;162577.44;5069996;28;20020;-69
2023/05/26 05:14:15;;;;;;;52.50;16.23;;;;;;;7.79;100.00;162601.66;5068673;28;20036;-69
2023/05/26 05:16:42;;;;;;;42.00;13.70;;;;;;;7.88;100.00;162625.91;5070291;28;20058;-69
2023/05/26 05:19:07;;;;;;;40.20;11.45;;;;;;;7.94;100.00;162642.06;5069101;28;20032;-69
2023/05/26 05:21:33;;;;;;;29.55;11.43;;;;;;;8.04;100.00;162666.34;5069358;28;20037;-69
2023/05/26 05:23:58;;;;;;;39.28;10.50;;;;;;;8.10;100.00;162682.50;5069118;28;20552;-69
2023/05/26 05:26:23;;;;;;;53.13;12.75;;;;;;;8.15;100.00;162696.00;5070381;28;20025;-69
2023/05/26 05:28:49;;;;;;;42.40;12.85;;;;;;;8.25;100.00;162722.94;5072178;28;20040;-69
2023/05/26 05:31:14;;;;;;;29.17;8.25;;;;;;;8.26;100.00;162725.63;5074182;28;20375;-69
2023/05/26 05:33:40;;;;;;;40.17;10.55;;;;;;;8.30;100.00;162733.75;5072131;28;20086;-71
2023/05/26 05:36:06;;;;;;;36.38;13.20;;;;;;;8.40;100.00;162760.69;5073379;28;20031;-68
2023/05/26 05:38:31;;;;;;;35.30;12.57;;;;;;;8.48;100.00;162782.28;5072070;28;20021;-66
2023/05/26 05:40:57;;;;;;;39.35;10.52;;;;;;;8.55;100.00;162801.16;5073701;28;20441;-64
2023/05/26 05:43:22;;;;;;;37.95;11.23;;;;;;;8.58;100.00;162807.91;5071784;28;20028;-64
2023/05/26 05:45:47;;;;;;;45.10;14.85;;;;;;;8.64;100.00;162822.75;5073225;28;20036;-64
2023/05/26 05:48:13;;;;;;;36.72;9.80;;;;;;;8.73;100.00;162847.03;5073660;28;20024;-63
2023/05/26 05:50:38;;;;;;;42.47;10.98;;;;;;;8.71;100.00;162841.63;5071610;28;20044;-63
2023/05/26 05:53:03;;;;;;;36.60;12.20;;;;;;;8.73;100.00;162847.03;5073269;28;20028;-62
2023/05/26 05:55:29;;;;;;;29.80;10.70;;;;;;;8.77;100.00;162857.78;5072053;28;20376;-63
2023/05/26 05:57:54;;;;;;;26.40;10.82;;;;;;;8.82;100.00;162871.31;5073274;28;20044;-63
2023/05/26 06:00:20;;;;;;;39.47;11.55;;;;;;;8.87;100.00;162884.78;5071555;28;20061;-63
2023/05/26 06:02:45;;;;;;;32.63;9.35;;;;;;;8.98;100.00;162913.09;5073119;28;20396;-63
2023/05/26 06:05:10;;;;;;;27.58;11.63;;;;;;;9.07;100.00;162936.00;5071709;28;20048;-63
2023/05/26 06:07:36;;;;;;;33.17;7.35;;;;;;;9.18;100.00;162965.69;5072657;28;20021;-63
2023/05/26 06:10:01;;;;;;;30.95;11.57;;;;;;;9.22;100.00;162975.13;5071657;28;20411;-63
2023/05/26 06:12:27;;;;;;;37.17;10.80;;;;;;;9.33;100.00;163003.44;5073071;28;20094;-63
2023/05/26 06:14:52;;;;;;;33.05;7.03;;;;;;;9.46;100.00;163037.13;5071014;28;20037;-63
2023/05/26 06:17:17;;;;;;;39.13;11.88;;;;;;;9.61;100.00;163076.28;5073096;28;20035;-63
2023/05/26 06:19:43;;;;;;;27.38;9.63;;;;;;;9.60;100.00;163074.94;5071208;28;20052;-63
2023/05/26 06:22:08;;;;;;;27.60;10.43;;;;;;;9.68;100.00;163095.16;5072683;28;20024;-63
2023/05/26 06:24:33;;;;;;;28.58;8.85;;;;;;;9.75;100.00;163112.72;5069930;28;20749;-63
2023/05/26 06:26:59;;;;;;;37.58;7.00;;;;;;;9.96;100.00;163168.00;5071197;28;20025;-63
2023/05/26 06:29:24;;;;;;;33.78;9.80;;;;;;;10.00;100.00;163178.81;5069226;28;20033;-63
2023/05/26 06:31:49;;;;;;;36.58;9.35;;;;;;;10.20;100.00;163230.06;5071179;28;20036;-63
2023/05/26 06:34:15;;;;;;;46.97;10.85;;;;;;;10.26;100.00;163246.25;5068715;28;20040;-63
2023/05/26 06:36:40;;;;;;;30.13;8.55;;;;;;;10.28;100.00;163251.66;5070857;28;20502;-62
2023/05/26 06:39:06;;;;;;;37.83;8.55;;;;;;;10.39;100.00;163280.06;5068979;28;20036;-63
2023/05/26 06:41:31;;;;;;;39.72;9.70;;;;;;;10.46;100.00;163298.97;5067386;28;20082;-63
2023/05/26 06:43:57;;;;;;;35.83;9.68;;;;;;;10.44;100.00;163294.91;5056480;28;20048;-63
2023/05/26 06:46:22;;;;;;;26.60;9.00;;;;;;;10.59;100.00;163332.72;5072227;28;20068;-63
2023/05/26 06:48:47;;;;;;;36.80;11.73;;;;;;;10.57;100.00;163328.66;5070747;28;20032;-63
2023/05/26 06:51:13;;;;;;;29.98;10.88;;;;;;;10.64;100.00;163346.19;5072019;28;20028;-63
2023/05/26 06:53:38;;;;;;;24.30;7.43;;;;;;;10.62;100.00;163340.78;5070537;28;20105;-63
2023/05/26 06:56:05;;;;;;;25.95;7.38;;;;;;;10.59;100.00;163332.72;5072255;28;20390;-62
2023/05/26 06:58:31;;;;;;;34.63;10.13;;;;;;;10.44;100.00;163293.53;5068842;28;20031;-65
2023/05/26 07:00:59;;;;;;;36.53;12.02;;;;;;;10.55;100.00;163321.88;5071949;28;20037;-63
2023/05/26 07:03:26;;;;;;;29.45;8.32;;;;;;;10.71;100.00;163365.09;5070790;28;20021;-63
2023/05/26 07:05:52;;;;;;;31.92;7.85;;;;;;;11.09;100.00;163465.00;5071272;28;20024;-63
2023/05/26 07:08:17;;;;;;;47.03;9.18;;;;;;;11.14;100.00;163475.78;5071873;28;20438;-62
2023/05/26 07:10:42;;;;;;;39.20;11.38;;;;;;;11.18;100.00;163486.59;5070351;28;20037;-63
2023/05/26 07:13:08;;;;;;;25.17;7.72;;;;;;;11.24;100.00;163502.81;5071012;28;20036;-62
2023/05/26 07:15:33;;;;;;;20.10;5.88;;;;;;;10.94;100.00;163424.50;5070124;28;20036;-63
2023/05/26 07:17:58;;;;;;;22.20;7.45;;;;;;;10.83;100.00;163394.81;5071933;28;20379;-62
2023/05/26 07:20:24;;;;;;;27.45;8.02;;;;;;;10.97;100.00;163431.22;5069963;28;20064;-62
2023/05/26 07:22:49;;;;;;;24.70;7.43;;;;;;;11.20;100.00;163492.03;5071401;28;20028;-62
2023/05/26 07:25:14;;;;;;;29.48;9.65;;;;;;;11.56;100.00;163586.53;5070136;28;20045;-63
2023/05/26 07:27:40;;;;;;;31.52;7.65;;;;;;;11.49;100.00;163568.97;5071004;28;20039;-63
2023/05/26 07:30:06;;;;;;;27.52;9.88;;;;;;;11.41;100.00;163548.75;5069351;28;20041;-63
2023/05/26 07:32:31;;;;;;;22.77;7.35;;;;;;;11.29;100.00;163516.28;5071442;28;20077;-63
2023/05/26 07:34:56;;;;;;;23.02;6.20;;;;;;;11.50;100.00;163570.34;5069601;28;20037;-62
2023/05/26 07:37:22;;;;;;;20.08;6.60;;;;;;;11.50;100.00;163570.34;5071466;28;20031;-63
2023/05/26 07:39:47;;;;;;;27.48;9.68;;;;;;;11.39;100.00;163543.31;5069833;28;20040;-63
2023/05/26 07:42:12;;;;;;;34.95;8.57;;;;;;;11.14;100.00;163475.78;5071124;28;20016;-62
2023/05/26 07:44:38;;;;;;;29.17;7.65;;;;;;;11.08;100.00;163462.28;5057592;28;20047;-62
2023/05/26 07:47:03;;;;;;;27.30;8.00;;;;;;;11.19;100.00;163489.31;5051229;28;20021;-63
2023/05/26 07:49:29;;;;;;;19.38;7.30;;;;;;;11.23;100.00;163501.47;5049395;28;20049;-62
2023/05/26 07:51:54;;;;;;;20.13;7.07;;;;;;;11.32;100.00;163524.41;5051114;28;20531;-63
2023/05/26 07:54:19;;;;;;;25.70;6.85;;;;;;;11.54;100.00;163582.47;5049678;28;20024;-63
2023/05/26 07:56:45;;;;;;;29.63;9.63;;;;;;;11.77;100.00;163640.56;5050676;28;20075;-63
2023/05/26 07:59:10;;;;;;;21.60;6.72;;;;;;;11.59;100.00;163596.00;5049922;28;20029;-62
2023/05/26 08:01:36;;;;;;;20.30;6.90;;;;;;;11.54;100.00;163581.13;5050852;28;20495;-62
2023/05/26 08:04:01;;;;;;;21.30;6.28;;;;;;;11.92;100.00;163681.09;5049354;28;20041;-62
2023/05/26 08:06:26;;;;;;;21.05;7.50;;;;;;;12.17;100.00;163746.00;5050971;28;20031;-62
2023/05/26 08:08:52;;;;;;;29.30;8.75;;;;;;;12.28;100.00;163774.38;5049508;28;20037;-62
2023/05/26 08:11:17;;;;;;;41.33;10.45;;;;;;;12.46;100.00;163823.00;5050663;28;20036;-63
2023/05/26 08:13:43;;;;;;;28.42;8.13;;;;;;;12.57;100.00;163851.38;5049267;28;20040;-63
2023/05/26 08:16:08;;;;;;;27.08;8.77;;;;;;;12.90;100.00;163937.91;5050844;28;20049;-63
2023/05/26 08:18:34;;;;;;;23.70;5.82;;;;;;;13.40;100.00;164067.72;5049286;28;20404;-63
2023/05/26 08:20:59;;;;;;;24.27;8.00;;;;;;;13.57;100.00;164113.72;5050853;28;20017;-63
2023/05/26 08:23:25;;;;;;;25.88;8.93;;;;;;;13.76;100.00;164163.75;5049738;28;20522;-62
2023/05/26 08:25:50;;;;;;;22.77;6.75;;;;;;;13.84;100.00;164184.00;5046306;28;20078;-63
2023/05/26 08:28:16;;;;;;;33.67;8.75;;;;;;;13.97;100.00;164217.84;5050207;28;20013;-63
2023/05/26 08:30:41;;;;;;;36.38;9.27;;;;;;;14.05;100.00;164239.47;5068555;28;20121;-63
2023/05/26 08:33:07;;;;;;;34.17;6.30;;;;;;;14.02;100.00;164230.03;5070639;28;20017;-62
2023/05/26 08:35:32;;;;;;;31.30;8.18;;;;;;;13.83;100.00;164181.31;5068591;28;20519;-62
2023/05/26 08:37:57;;;;;;;26.13;7.40;;;;;;;13.71;100.00;164150.19;5070656;28;20383;-63
2023/05/26 08:40:23;;;;;;;36.40;10.32;;;;;;;13.68;100.00;164140.72;5069364;28;20060;-63
2023/05/26 08:42:54;;;;;;;20.25;6.47;;;;;;;14.07;100.00;164243.53;5070116;28;20032;-62
2023/05/26 08:45:20;;;;;;;24.30;7.60;;;;;;;13.77;100.00;164166.47;5051473;28;20041;-62
2023/05/26 08:47:47;;;;;;;12.55;4.70;;;;;;;13.52;100.00;164100.16;5050171;28;20094;-63
2023/05/26 08:50:13;;;;;;;25.63;9.68;;;;;;;13.39;100.00;164065.00;5048748;28;20495;-63
2023/05/26 08:52:41;;;;;;;23.42;6.78;;;;;;;13.52;100.00;164100.16;5050300;28;20028;-62
2023/05/26 08:55:08;;;;;;;14.00;5.97;;;;;;;13.89;100.00;164197.53;5049185;28;20033;-63
2023/05/26 08:57:34;;;;;;;18.52;6.53;;;;;;;14.25;100.00;164290.88;5050217;28;20029;-62
2023/05/26 08:59:59;;;;;;;24.15;6.20;;;;;;;14.27;100.00;164296.28;5048996;28;20041;-62
2023/05/26 09:02:26;;;;;;;14.65;5.45;;;;;;;14.37;100.00;164322.00;5052854;28;20032;-62
2023/05/26 09:04:51;;;;;;;22.27;6.05;;;;;;;14.17;100.00;164269.22;5052374;28;20044;-63
2023/05/26 09:07:18;;;;;;;23.20;7.25;;;;;;;13.95;100.00;164213.78;5054344;28;20029;-62
2023/05/26 09:09:43;;;;;;;17.38;7.40;;;;;;;13.94;100.00;164209.69;5052798;28;20040;-62
2023/05/26 09:12:10;;;;;;;17.90;5.60;;;;;;;13.90;100.00;164200.25;5054299;28;20025;-62
2023/05/26 09:14:37;;;;;;;18.50;7.53;;;;;;;14.26;100.00;164294.91;5052695;28;20064;-62
2023/05/26 09:17:03;;;;;;;27.92;8.60;;;;;;;14.41;100.00;164332.78;5054315;28;20086;-62
2023/05/26 09:19:29;;;;;;;23.95;7.25;;;;;;;14.16;100.00;164267.88;5052415;28;20499;-62
2023/05/26 09:21:54;;;;;;;16.08;6.03;;;;;;;14.08;100.00;164247.56;5054110;28;20029;-63
2023/05/26 09:24:23;;;;;;;52.22;6.90;;;;;;;14.24;100.00;164289.53;5052330;28;20041;-62
2023/05/26 09:26:49;;;;;;;35.55;9.00;;;;;;;14.52;100.00;164362.59;5053493;28;20612;-62
2023/05/26 09:29:15;;;;;;;19.50;8.73;;;;;;;15.02;100.00;164492.53;5052773;28;20036;-62
2023/05/26 09:31:41;;;;;;;19.15;5.57;;;;;;;15.18;100.00;164535.84;5053619;28;20651;-63
2023/05/26 09:34:08;;;;;;;22.33;5.68;;;;;;;15.04;100.00;164497.94;5052281;28;20037;-62
2023/05/26 09:36:35;;;;;;;16.92;5.43;;;;;;;14.90;100.00;164462.78;5053645;28;20025;-63
2023/05/26 09:39:01;;;;;;;20.73;7.05;;;;;;;14.65;100.00;164395.03;5052345;28;20354;-62
2023/05/26 09:41:38;;;;;;;27.70;7.53;;;;;;;15.09;100.00;164511.47;5053454;28;20488;-62
2023/05/26 09:44:14;;;;;;;33.47;6.63;;;;;;;15.04;100.00;164497.94;5059169;28;20041;-63
2023/05/26 09:46:40;;;;;;;21.08;6.55;;;;;;;15.35;100.00;164580.50;5073432;28;20074;-63
2023/05/26 09:49:17;;;;;;;27.83;8.25;;;;;;;15.41;100.00;164595.41;5071932;28;20036;-62
2023/05/26 09:51:44;;;;;;;26.33;7.93;;;;;;;15.41;100.00;164595.41;5073259;28;20040;-63
2023/05/26 09:54:10;;;;;;;14.63;5.45;;;;;;;15.34;100.00;164576.47;5072126;28;20487;-63
2023/05/26 09:56:43;;;;;;;25.00;6.70;;;;;;;15.19;100.00;164538.56;5073009;28;20060;-62
2023/05/26 09:59:09;;;;;;;20.85;6.20;;;;;;;15.22;100.00;164546.72;5072064;28;20032;-62
2023/05/26 10:01:39;;;;;;;14.63;5.72;;;;;;;14.99;100.00;164484.44;5072985;28;20400;-62
2023/05/26 10:04:07;;;;;;;24.67;8.60;;;;;;;15.04;100.00;164497.94;5071606;28;20048;-62
2023/05/26 10:06:36;;;;;;;13.35;5.93;;;;;;;15.30;100.00;164565.66;5072961;28;20433;-63
2023/05/26 10:09:04;;;;;;;24.30;6.32;;;;;;;15.50;100.00;164619.78;5065969;28;20052;-62
2023/05/26 10:11:31;;;;;;;16.50;5.88;;;;;;;15.60;100.00;164644.16;5072665;28;20035;-62
2023/05/26 10:13:58;;;;;;;12.75;5.05;;;;;;;15.57;100.00;164636.03;5070356;28;20035;-62
2023/05/26 10:16:23;;;;;;;20.65;6.95;;;;;;;15.81;100.00;164699.66;5071545;28;20033;-63
2023/05/26 10:18:49;;;;;;;19.05;7.35;;;;;;;15.78;100.00;164692.88;5071121;28;20570;-63
2023/05/26 10:21:19;;;;;;;34.47;9.43;;;;;;;16.12;100.00;164782.28;5072250;28;20024;-63
2023/05/26 10:23:51;;;;;;;15.50;5.82;;;;;;;16.34;100.00;164840.53;5071177;28;20494;-63
2023/05/26 10:26:36;;;;;;;24.70;5.97;;;;;;;15.99;100.00;164747.09;5072448;28;20032;-62
2023/05/26 10:29:05;;;;;;;16.08;6.55;;;;;;;16.42;100.00;164860.84;5069052;28;20518;-62
2023/05/26 10:31:34;;;;;;;;;;;;;;;16.24;100.00;164812.09;5064024;28;20028;-62
2023/05/26 10:34:00;;;;;;;20.17;6.63;;;;;;;16.35;100.00;164841.88;5056619;28;19973;-62
2023/05/26 10:36:26;;;;;;;25.58;8.05;;;;;;;16.16;100.00;164791.75;5067545;28;20020;-63
2023/05/26 10:38:53;;;;;;;23.15;7.30;;;;;;;16.39;100.00;164851.38;5069568;28;20044;-63
2023/05/26 10:41:35;;;;;;;22.90;6.40;;;;;;;16.69;100.00;164929.94;5071595;28;20024;-63
2023/05/26 10:44:02;;;;;;;19.85;6.35;;;;;;;16.76;100.00;164950.28;5070540;28;20075;-63
2023/05/26 10:46:38;;;;;;;15.95;6.38;;;;;;;16.94;100.00;164996.41;5071929;28;20121;-63
2023/05/26 10:49:03;;;;;;;21.95;7.28;;;;;;;17.06;100.00;165027.53;5070768;28;20037;-63
2023/05/26 10:51:36;;;;;;;21.90;7.03;;;;;;;16.67;100.00;164924.53;5072116;28;20082;-63
2023/05/26 10:54:18;;;;;;;24.20;7.68;;;;;;;16.60;100.00;164906.91;5070637;28;20048;-62
2023/05/26 10:56:43;;;;;;;15.73;5.70;;;;;;;16.39;100.00;164852.75;5069889;28;20044;-63
2023/05/26 10:59:20;;;;;;;20.25;6.72;;;;;;;16.58;100.00;164902.88;5065896;28;20119;-64
2023/05/26 11:01:53;;;;;;;24.23;7.43;;;;;;;16.48;100.00;164877.13;5052465;28;20053;-63
2023/05/26 11:04:18;;;;;;;16.33;5.85;;;;;;;16.91;100.00;164988.22;5058625;28;20040;-63
2023/05/26 11:06:52;;;;;;;15.02;5.82;;;;;;;16.92;100.00;164990.94;5071138;28;20032;-63
2023/05/26 11:09:22;;;;;;;13.52;6.15;;;;;;;16.73;100.00;164940.78;5069738;28;20044;-62